Annabella, Utah
Current Conditions -  °F | °C
As of 2:15 PM on Monday 22 Dec 2014 (Local Time) from KDTA Reporting Station
Overcast Overcast  
Wind Chill:   Ceiling: 4200
Heat Index:   Visibility: 10mi
Dew Point:   Wind: 16mph
Humidity: 85%   Direction: 330°NNW
Pressure: 30.02"   Gusts: NA
Location:  38.71°N, 112.06°W
Report Text: KDTA 222115Z AUTO 33014KT 10SM SCT021 SCT032 OVC042 06/04 A3002 RMK AO1 T00640041
Loading
Personal Weather Stations






























Interactive Weather Map New forecast layout! Learn more

10-Day Weather Forecast

Advertisements
Track Severe Weather on mobile